sensor_id;sensor_type;location;lat;lon;timestamp;P1;durP1;ratioP1;P2;durP2;ratioP2
16642;SDS011;8435;52.184;5.406;2023-05-10T00:00:24;18.30;;;16.37;;
16642;SDS011;8435;52.184;5.406;2023-05-10T00:02:51;20.10;;;16.70;;
16642;SDS011;8435;52.184;5.406;2023-05-10T00:05:21;21.93;;;19.10;;
16642;SDS011;8435;52.184;5.406;2023-05-10T00:07:48;20.73;;;18.43;;
16642;SDS011;8435;52.184;5.406;2023-05-10T00:10:15;19.33;;;16.60;;
16642;SDS011;8435;52.184;5.406;2023-05-10T00:12:42;18.53;;;16.10;;
16642;SDS011;8435;52.184;5.406;2023-05-10T00:15:10;20.83;;;17.50;;
16642;SDS011;8435;52.184;5.406;2023-05-10T00:17:41;20.10;;;17.17;;
16642;SDS011;8435;52.184;5.406;2023-05-10T00:20:09;20.67;;;17.63;;
16642;SDS011;8435;52.184;5.406;2023-05-10T00:22:36;20.47;;;17.57;;
16642;SDS011;8435;52.184;5.406;2023-05-10T00:25:03;20.93;;;17.40;;
16642;SDS011;8435;52.184;5.406;2023-05-10T00:27:31;20.43;;;16.80;;
16642;SDS011;8435;52.184;5.406;2023-05-10T00:30:00;21.50;;;18.30;;
16642;SDS011;8435;52.184;5.406;2023-05-10T00:32:28;21.57;;;17.60;;
16642;SDS011;8435;52.184;5.406;2023-05-10T00:34:55;21.57;;;17.60;;
16642;SDS011;8435;52.184;5.406;2023-05-10T00:37:22;19.57;;;17.13;;
16642;SDS011;8435;52.184;5.406;2023-05-10T00:39:49;20.47;;;17.20;;
16642;SDS011;8435;52.184;5.406;2023-05-10T00:42:16;21.17;;;17.73;;
16642;SDS011;8435;52.184;5.406;2023-05-10T00:44:43;21.57;;;18.17;;
16642;SDS011;8435;52.184;5.406;2023-05-10T00:47:10;21.40;;;17.93;;
16642;SDS011;8435;52.184;5.406;2023-05-10T00:49:38;21.97;;;17.77;;
16642;SDS011;8435;52.184;5.406;2023-05-10T00:52:05;20.97;;;17.90;;
16642;SDS011;8435;52.184;5.406;2023-05-10T00:54:32;24.23;;;19.30;;
16642;SDS011;8435;52.184;5.406;2023-05-10T00:56:59;23.00;;;19.27;;
16642;SDS011;8435;52.184;5.406;2023-05-10T00:59:29;20.80;;;17.40;;
16642;SDS011;8435;52.184;5.406;2023-05-10T01:01:56;22.40;;;18.93;;
16642;SDS011;8435;52.184;5.406;2023-05-10T01:04:24;24.83;;;19.60;;
16642;SDS011;8435;52.184;5.406;2023-05-10T01:06:57;22.37;;;19.33;;
16642;SDS011;8435;52.184;5.406;2023-05-10T01:09:24;24.67;;;20.83;;
16642;SDS011;8435;52.184;5.406;2023-05-10T01:11:52;23.37;;;19.70;;
16642;SDS011;8435;52.184;5.406;2023-05-10T01:14:20;27.37;;;22.03;;
16642;SDS011;8435;52.184;5.406;2023-05-10T01:16:48;29.73;;;23.27;;
16642;SDS011;8435;52.184;5.406;2023-05-10T01:19:17;28.90;;;23.33;;
16642;SDS011;8435;52.184;5.406;2023-05-10T01:21:49;28.63;;;23.30;;
16642;SDS011;8435;52.184;5.406;2023-05-10T01:24:32;30.17;;;24.47;;
16642;SDS011;8435;52.184;5.406;2023-05-10T01:27:14;32.13;;;24.93;;
16642;SDS011;8435;52.184;5.406;2023-05-10T01:33:05;33.37;;;26.47;;
16642;SDS011;8435;52.184;5.406;2023-05-10T01:35:41;34.47;;;27.33;;
16642;SDS011;8435;52.184;5.406;2023-05-10T01:38:15;36.00;;;27.33;;
16642;SDS011;8435;52.184;5.406;2023-05-10T01:40:48;34.37;;;26.60;;
16642;SDS011;8435;52.184;5.406;2023-05-10T01:43:26;37.20;;;27.97;;
16642;SDS011;8435;52.184;5.406;2023-05-10T01:45:59;37.47;;;28.53;;
16642;SDS011;8435;52.184;5.406;2023-05-10T01:48:36;38.00;;;28.80;;
16642;SDS011;8435;52.184;5.406;2023-05-10T01:51:05;38.50;;;28.67;;
16642;SDS011;8435;52.184;5.406;2023-05-10T01:53:32;35.73;;;28.03;;
16642;SDS011;8435;52.184;5.406;2023-05-10T01:56:03;39.53;;;29.30;;
16642;SDS011;8435;52.184;5.406;2023-05-10T01:58:32;37.07;;;29.33;;
16642;SDS011;8435;52.184;5.406;2023-05-10T02:01:03;39.17;;;28.87;;
16642;SDS011;8435;52.184;5.406;2023-05-10T02:03:33;37.57;;;28.97;;
16642;SDS011;8435;52.184;5.406;2023-05-10T02:06:04;39.17;;;29.00;;
16642;SDS011;8435;52.184;5.406;2023-05-10T02:08:41;40.63;;;29.63;;
16642;SDS011;8435;52.184;5.406;2023-05-10T02:11:09;37.80;;;27.97;;
16642;SDS011;8435;52.184;5.406;2023-05-10T02:13:38;37.10;;;28.43;;
16642;SDS011;8435;52.184;5.406;2023-05-10T02:16:07;38.17;;;28.73;;
16642;SDS011;8435;52.184;5.406;2023-05-10T02:18:36;35.63;;;26.40;;
16642;SDS011;8435;52.184;5.406;2023-05-10T02:21:05;39.43;;;28.10;;
16642;SDS011;8435;52.184;5.406;2023-05-10T02:23:33;39.13;;;29.10;;
16642;SDS011;8435;52.184;5.406;2023-05-10T02:26:01;40.27;;;28.90;;
16642;SDS011;8435;52.184;5.406;2023-05-10T02:28:30;38.97;;;27.40;;
16642;SDS011;8435;52.184;5.406;2023-05-10T02:30:59;37.60;;;29.17;;
16642;SDS011;8435;52.184;5.406;2023-05-10T02:33:26;39.43;;;28.60;;
16642;SDS011;8435;52.184;5.406;2023-05-10T02:35:56;40.60;;;28.27;;
16642;SDS011;8435;52.184;5.406;2023-05-10T02:38:23;38.30;;;27.27;;
16642;SDS011;8435;52.184;5.406;2023-05-10T02:40:51;41.43;;;29.17;;
16642;SDS011;8435;52.184;5.406;2023-05-10T02:43:19;38.23;;;28.03;;
16642;SDS011;8435;52.184;5.406;2023-05-10T02:45:50;38.60;;;28.67;;
16642;SDS011;8435;52.184;5.406;2023-05-10T02:48:19;36.93;;;27.03;;
16642;SDS011;8435;52.184;5.406;2023-05-10T02:50:46;40.83;;;27.80;;
16642;SDS011;8435;52.184;5.406;2023-05-10T02:53:20;42.13;;;28.87;;
16642;SDS011;8435;52.184;5.406;2023-05-10T02:55:57;41.90;;;29.33;;
16642;SDS011;8435;52.184;5.406;2023-05-10T02:58:28;39.97;;;29.07;;
16642;SDS011;8435;52.184;5.406;2023-05-10T03:00:55;42.47;;;29.40;;
16642;SDS011;8435;52.184;5.406;2023-05-10T03:03:22;41.97;;;29.70;;
16642;SDS011;8435;52.184;5.406;2023-05-10T03:05:49;40.47;;;29.07;;
16642;SDS011;8435;52.184;5.406;2023-05-10T03:08:20;39.77;;;29.10;;
16642;SDS011;8435;52.184;5.406;2023-05-10T03:10:52;42.43;;;29.27;;
16642;SDS011;8435;52.184;5.406;2023-05-10T03:13:29;41.37;;;27.70;;
16642;SDS011;8435;52.184;5.406;2023-05-10T03:16:05;42.47;;;28.93;;
16642;SDS011;8435;52.184;5.406;2023-05-10T03:18:37;44.37;;;29.57;;
16642;SDS011;8435;52.184;5.406;2023-05-10T03:21:10;43.57;;;30.33;;
16642;SDS011;8435;52.184;5.406;2023-05-10T03:23:43;44.33;;;28.53;;
16642;SDS011;8435;52.184;5.406;2023-05-10T03:26:12;49.83;;;30.00;;
16642;SDS011;8435;52.184;5.406;2023-05-10T03:28:43;47.60;;;29.80;;
16642;SDS011;8435;52.184;5.406;2023-05-10T03:31:11;45.40;;;28.13;;
16642;SDS011;8435;52.184;5.406;2023-05-10T03:33:45;47.57;;;29.40;;
16642;SDS011;8435;52.184;5.406;2023-05-10T03:36:12;47.37;;;29.07;;
16642;SDS011;8435;52.184;5.406;2023-05-10T03:38:39;51.50;;;31.07;;
16642;SDS011;8435;52.184;5.406;2023-05-10T03:41:07;48.93;;;30.63;;
16642;SDS011;8435;52.184;5.406;2023-05-10T03:43:34;49.40;;;31.50;;
16642;SDS011;8435;52.184;5.406;2023-05-10T03:46:01;46.57;;;29.80;;
16642;SDS011;8435;52.184;5.406;2023-05-10T03:48:28;52.37;;;30.60;;
16642;SDS011;8435;52.184;5.406;2023-05-10T03:50:55;51.53;;;31.33;;
16642;SDS011;8435;52.184;5.406;2023-05-10T03:53:25;48.03;;;31.33;;
16642;SDS011;8435;52.184;5.406;2023-05-10T03:55:54;52.30;;;32.73;;
16642;SDS011;8435;52.184;5.406;2023-05-10T03:58:21;53.27;;;32.07;;
16642;SDS011;8435;52.184;5.406;2023-05-10T04:00:50;48.37;;;30.90;;
16642;SDS011;8435;52.184;5.406;2023-05-10T04:03:17;48.40;;;29.87;;
16642;SDS011;8435;52.184;5.406;2023-05-10T04:05:44;48.37;;;30.27;;
16642;SDS011;8435;52.184;5.406;2023-05-10T04:08:10;53.53;;;32.87;;
16642;SDS011;8435;52.184;5.406;2023-05-10T04:10:37;51.20;;;31.30;;
16642;SDS011;8435;52.184;5.406;2023-05-10T04:13:06;49.27;;;30.97;;
16642;SDS011;8435;52.184;5.406;2023-05-10T04:15:35;50.40;;;32.17;;
16642;SDS011;8435;52.184;5.406;2023-05-10T04:18:01;54.23;;;32.80;;
16642;SDS011;8435;52.184;5.406;2023-05-10T04:20:28;57.97;;;33.33;;
16642;SDS011;8435;52.184;5.406;2023-05-10T04:22:55;56.93;;;34.47;;
16642;SDS011;8435;52.184;5.406;2023-05-10T04:25:22;54.17;;;33.83;;
16642;SDS011;8435;52.184;5.406;2023-05-10T04:27:48;58.47;;;34.63;;
16642;SDS011;8435;52.184;5.406;2023-05-10T04:30:17;60.03;;;34.97;;
16642;SDS011;8435;52.184;5.406;2023-05-10T04:32:43;53.87;;;33.10;;
16642;SDS011;8435;52.184;5.406;2023-05-10T04:35:13;53.10;;;32.40;;
16642;SDS011;8435;52.184;5.406;2023-05-10T04:37:41;54.27;;;34.03;;
16642;SDS011;8435;52.184;5.406;2023-05-10T04:40:08;46.00;;;29.97;;
16642;SDS011;8435;52.184;5.406;2023-05-10T04:42:39;46.83;;;29.97;;
16642;SDS011;8435;52.184;5.406;2023-05-10T04:45:06;45.80;;;29.03;;
16642;SDS011;8435;52.184;5.406;2023-05-10T04:47:35;43.63;;;28.83;;
16642;SDS011;8435;52.184;5.406;2023-05-10T04:50:02;44.73;;;30.10;;
16642;SDS011;8435;52.184;5.406;2023-05-10T04:52:30;41.47;;;27.13;;
16642;SDS011;8435;52.184;5.406;2023-05-10T04:55:00;42.23;;;28.57;;
16642;SDS011;8435;52.184;5.406;2023-05-10T04:57:26;41.00;;;27.70;;
16642;SDS011;8435;52.184;5.406;2023-05-10T04:59:53;42.20;;;28.57;;
16642;SDS011;8435;52.184;5.406;2023-05-10T05:02:20;48.70;;;31.00;;
16642;SDS011;8435;52.184;5.406;2023-05-10T05:04:50;43.30;;;29.43;;
16642;SDS011;8435;52.184;5.406;2023-05-10T05:07:18;40.03;;;27.57;;
16642;SDS011;8435;52.184;5.406;2023-05-10T05:09:44;41.60;;;29.17;;
16642;SDS011;8435;52.184;5.406;2023-05-10T05:12:13;43.17;;;30.87;;
16642;SDS011;8435;52.184;5.406;2023-05-10T05:14:40;43.23;;;28.53;;
16642;SDS011;8435;52.184;5.406;2023-05-10T05:17:07;45.03;;;29.77;;
16642;SDS011;8435;52.184;5.406;2023-05-10T05:19:36;48.40;;;30.90;;
16642;SDS011;8435;52.184;5.406;2023-05-10T05:22:04;44.17;;;29.93;;
16642;SDS011;8435;52.184;5.406;2023-05-10T05:24:34;43.13;;;28.93;;
16642;SDS011;8435;52.184;5.406;2023-05-10T05:27:02;44.90;;;29.20;;
16642;SDS011;8435;52.184;5.406;2023-05-10T05:29:32;44.27;;;29.00;;
16642;SDS011;8435;52.184;5.406;2023-05-10T05:31:59;44.67;;;28.83;;
16642;SDS011;8435;52.184;5.406;2023-05-10T05:34:26;45.13;;;28.77;;
16642;SDS011;8435;52.184;5.406;2023-05-10T05:36:55;40.90;;;26.57;;
16642;SDS011;8435;52.184;5.406;2023-05-10T05:39:24;41.60;;;27.50;;
16642;SDS011;8435;52.184;5.406;2023-05-10T05:41:50;39.83;;;27.50;;
16642;SDS011;8435;52.184;5.406;2023-05-10T05:44:17;45.67;;;28.53;;
16642;SDS011;8435;52.184;5.406;2023-05-10T05:46:44;40.83;;;28.40;;
16642;SDS011;8435;52.184;5.406;2023-05-10T05:49:11;42.47;;;30.00;;
16642;SDS011;8435;52.184;5.406;2023-05-10T05:51:37;42.13;;;27.93;;
16642;SDS011;8435;52.184;5.406;2023-05-10T05:54:04;39.43;;;27.23;;
16642;SDS011;8435;52.184;5.406;2023-05-10T05:56:32;40.00;;;25.63;;
16642;SDS011;8435;52.184;5.406;2023-05-10T05:58:59;39.40;;;26.43;;
16642;SDS011;8435;52.184;5.406;2023-05-10T06:01:26;40.83;;;26.93;;
16642;SDS011;8435;52.184;5.406;2023-05-10T06:03:53;40.13;;;26.80;;
16642;SDS011;8435;52.184;5.406;2023-05-10T06:06:19;41.67;;;26.77;;
16642;SDS011;8435;52.184;5.406;2023-05-10T06:08:46;40.37;;;28.40;;
16642;SDS011;8435;52.184;5.406;2023-05-10T06:11:13;40.77;;;28.23;;
16642;SDS011;8435;52.184;5.406;2023-05-10T06:13:41;33.80;;;24.47;;
16642;SDS011;8435;52.184;5.406;2023-05-10T06:16:08;34.40;;;24.97;;
16642;SDS011;8435;52.184;5.406;2023-05-10T06:18:37;30.33;;;23.20;;
16642;SDS011;8435;52.184;5.406;2023-05-10T06:21:05;33.50;;;22.60;;
16642;SDS011;8435;52.184;5.406;2023-05-10T06:23:32;26.90;;;20.17;;
16642;SDS011;8435;52.184;5.406;2023-05-10T06:25:59;27.57;;;20.40;;
16642;SDS011;8435;52.184;5.406;2023-05-10T06:28:26;23.33;;;18.47;;
16642;SDS011;8435;52.184;5.406;2023-05-10T06:30:54;23.57;;;19.37;;
16642;SDS011;8435;52.184;5.406;2023-05-10T06:33:21;22.87;;;18.43;;
16642;SDS011;8435;52.184;5.406;2023-05-10T06:35:47;25.07;;;19.03;;
16642;SDS011;8435;52.184;5.406;2023-05-10T06:38:14;23.93;;;18.80;;
16642;SDS011;8435;52.184;5.406;2023-05-10T06:40:41;25.70;;;18.50;;
16642;SDS011;8435;52.184;5.406;2023-05-10T06:43:17;22.93;;;17.47;;
16642;SDS011;8435;52.184;5.406;2023-05-10T06:45:44;24.67;;;17.63;;
16642;SDS011;8435;52.184;5.406;2023-05-10T06:48:12;21.90;;;17.10;;
16642;SDS011;8435;52.184;5.406;2023-05-10T06:50:39;23.13;;;17.60;;
16642;SDS011;8435;52.184;5.406;2023-05-10T06:53:06;23.03;;;17.17;;
16642;SDS011;8435;52.184;5.406;2023-05-10T06:55:32;21.73;;;17.27;;
16642;SDS011;8435;52.184;5.406;2023-05-10T06:57:59;24.60;;;17.40;;
16642;SDS011;8435;52.184;5.406;2023-05-10T07:00:27;22.37;;;16.83;;
16642;SDS011;8435;52.184;5.406;2023-05-10T07:02:53;22.00;;;16.63;;
16642;SDS011;8435;52.184;5.406;2023-05-10T07:05:22;21.13;;;16.17;;
16642;SDS011;8435;52.184;5.406;2023-05-10T07:07:49;19.13;;;16.13;;
16642;SDS011;8435;52.184;5.406;2023-05-10T07:10:16;18.30;;;14.97;;
16642;SDS011;8435;52.184;5.406;2023-05-10T07:12:43;19.47;;;15.00;;
16642;SDS011;8435;52.184;5.406;2023-05-10T07:15:10;20.70;;;16.60;;
16642;SDS011;8435;52.184;5.406;2023-05-10T07:17:37;19.70;;;15.50;;
16642;SDS011;8435;52.184;5.406;2023-05-10T07:20:07;20.37;;;15.07;;
16642;SDS011;8435;52.184;5.406;2023-05-10T07:22:41;20.53;;;14.60;;
16642;SDS011;8435;52.184;5.406;2023-05-10T07:25:08;17.47;;;13.83;;
16642;SDS011;8435;52.184;5.406;2023-05-10T07:27:35;19.13;;;15.37;;
16642;SDS011;8435;52.184;5.406;2023-05-10T07:30:06;18.97;;;15.73;;
16642;SDS011;8435;52.184;5.406;2023-05-10T07:32:33;18.67;;;14.73;;
16642;SDS011;8435;52.184;5.406;2023-05-10T07:35:00;17.37;;;14.30;;
16642;SDS011;8435;52.184;5.406;2023-05-10T07:37:27;17.97;;;14.70;;
16642;SDS011;8435;52.184;5.406;2023-05-10T07:39:55;17.27;;;14.00;;
16642;SDS011;8435;52.184;5.406;2023-05-10T07:42:24;18.90;;;14.90;;
16642;SDS011;8435;52.184;5.406;2023-05-10T07:44:53;19.40;;;14.77;;
16642;SDS011;8435;52.184;5.406;2023-05-10T07:47:20;17.23;;;14.17;;
16642;SDS011;8435;52.184;5.406;2023-05-10T07:49:48;15.50;;;13.03;;
16642;SDS011;8435;52.184;5.406;2023-05-10T07:52:16;15.03;;;12.13;;
16642;SDS011;8435;52.184;5.406;2023-05-10T07:54:43;16.00;;;13.33;;
16642;SDS011;8435;52.184;5.406;2023-05-10T07:57:11;16.90;;;13.23;;
16642;SDS011;8435;52.184;5.406;2023-05-10T07:59:39;14.97;;;11.90;;
16642;SDS011;8435;52.184;5.406;2023-05-10T08:02:06;15.73;;;12.30;;
16642;SDS011;8435;52.184;5.406;2023-05-10T08:04:33;15.13;;;12.30;;
16642;SDS011;8435;52.184;5.406;2023-05-10T08:06:59;14.33;;;12.37;;
16642;SDS011;8435;52.184;5.406;2023-05-10T08:09:26;13.53;;;11.20;;
16642;SDS011;8435;52.184;5.406;2023-05-10T08:11:53;13.27;;;11.87;;
16642;SDS011;8435;52.184;5.406;2023-05-10T08:14:22;13.67;;;12.13;;
16642;SDS011;8435;52.184;5.406;2023-05-10T08:16:49;13.60;;;11.63;;
16642;SDS011;8435;52.184;5.406;2023-05-10T08:19:16;13.77;;;12.33;;
16642;SDS011;8435;52.184;5.406;2023-05-10T08:21:44;13.90;;;12.37;;
16642;SDS011;8435;52.184;5.406;2023-05-10T08:24:11;12.50;;;11.23;;
16642;SDS011;8435;52.184;5.406;2023-05-10T08:26:38;14.17;;;12.07;;
16642;SDS011;8435;52.184;5.406;2023-05-10T08:29:05;13.87;;;12.37;;
16642;SDS011;8435;52.184;5.406;2023-05-10T08:31:33;12.43;;;10.80;;
16642;SDS011;8435;52.184;5.406;2023-05-10T08:33:59;14.13;;;10.27;;
16642;SDS011;8435;52.184;5.406;2023-05-10T08:36:26;10.80;;;9.70;;
16642;SDS011;8435;52.184;5.406;2023-05-10T08:38:53;10.77;;;9.77;;
16642;SDS011;8435;52.184;5.406;2023-05-10T08:41:23;11.13;;;10.03;;
16642;SDS011;8435;52.184;5.406;2023-05-10T08:43:52;10.67;;;9.40;;
16642;SDS011;8435;52.184;5.406;2023-05-10T08:46:21;12.77;;;10.80;;
16642;SDS011;8435;52.184;5.406;2023-05-10T08:48:50;10.80;;;9.73;;
16642;SDS011;8435;52.184;5.406;2023-05-10T08:51:18;11.70;;;10.07;;
16642;SDS011;8435;52.184;5.406;2023-05-10T08:53:46;11.80;;;10.53;;
16642;SDS011;8435;52.184;5.406;2023-05-10T08:56:13;13.10;;;11.00;;
16642;SDS011;8435;52.184;5.406;2023-05-10T08:58:42;11.30;;;10.10;;
16642;SDS011;8435;52.184;5.406;2023-05-10T09:01:09;11.20;;;10.10;;
16642;SDS011;8435;52.184;5.406;2023-05-10T09:03:37;12.90;;;11.53;;
16642;SDS011;8435;52.184;5.406;2023-05-10T09:06:06;13.40;;;11.37;;
16642;SDS011;8435;52.184;5.406;2023-05-10T09:08:33;12.53;;;11.20;;
16642;SDS011;8435;52.184;5.406;2023-05-10T09:11:00;11.60;;;10.40;;
16642;SDS011;8435;52.184;5.406;2023-05-10T09:13:27;11.20;;;10.10;;
16642;SDS011;8435;52.184;5.406;2023-05-10T09:15:55;9.53;;;8.63;;
16642;SDS011;8435;52.184;5.406;2023-05-10T09:18:22;7.83;;;7.13;;
16642;SDS011;8435;52.184;5.406;2023-05-10T09:20:48;8.47;;;7.10;;
16642;SDS011;8435;52.184;5.406;2023-05-10T09:23:17;8.48;;;7.57;;
16642;SDS011;8435;52.184;5.406;2023-05-10T09:25:43;7.67;;;6.97;;
16642;SDS011;8435;52.184;5.406;2023-05-10T09:28:11;7.55;;;6.85;;
16642;SDS011;8435;52.184;5.406;2023-05-10T09:30:37;6.85;;;6.13;;
16642;SDS011;8435;52.184;5.406;2023-05-10T09:33:05;6.72;;;6.13;;
16642;SDS011;8435;52.184;5.406;2023-05-10T09:35:33;6.70;;;6.05;;
16642;SDS011;8435;52.184;5.406;2023-05-10T09:38:00;5.65;;;5.05;;
16642;SDS011;8435;52.184;5.406;2023-05-10T09:40:30;5.03;;;4.63;;
16642;SDS011;8435;52.184;5.406;2023-05-10T09:43:00;6.72;;;5.80;;
16642;SDS011;8435;52.184;5.406;2023-05-10T09:45:29;5.50;;;5.00;;
16642;SDS011;8435;52.184;5.406;2023-05-10T09:47:59;5.65;;;5.15;;
16642;SDS011;8435;52.184;5.406;2023-05-10T09:50:27;6.22;;;4.97;;
16642;SDS011;8435;52.184;5.406;2023-05-10T09:52:55;5.68;;;5.05;;
16642;SDS011;8435;52.184;5.406;2023-05-10T09:55:24;4.88;;;4.47;;
16642;SDS011;8435;52.184;5.406;2023-05-10T09:57:59;5.03;;;4.57;;
16642;SDS011;8435;52.184;5.406;2023-05-10T10:00:27;5.50;;;4.93;;
16642;SDS011;8435;52.184;5.406;2023-05-10T10:02:54;4.90;;;4.47;;
16642;SDS011;8435;52.184;5.406;2023-05-10T10:05:27;5.07;;;4.68;;
16642;SDS011;8435;52.184;5.406;2023-05-10T10:07:56;5.30;;;4.90;;
16642;SDS011;8435;52.184;5.406;2023-05-10T10:10:24;5.05;;;4.63;;
16642;SDS011;8435;52.184;5.406;2023-05-10T10:12:51;4.90;;;4.40;;
16642;SDS011;8435;52.184;5.406;2023-05-10T10:15:19;5.38;;;4.88;;
16642;SDS011;8435;52.184;5.406;2023-05-10T10:17:46;5.60;;;5.10;;
16642;SDS011;8435;52.184;5.406;2023-05-10T10:20:15;5.57;;;5.07;;
16642;SDS011;8435;52.184;5.406;2023-05-10T10:22:42;6.00;;;5.50;;
16642;SDS011;8435;52.184;5.406;2023-05-10T10:25:10;5.88;;;5.35;;
16642;SDS011;8435;52.184;5.406;2023-05-10T10:27:41;6.38;;;5.85;;
16642;SDS011;8435;52.184;5.406;2023-05-10T10:30:17;6.43;;;5.82;;
16642;SDS011;8435;52.184;5.406;2023-05-10T10:33:06;7.28;;;6.60;;
16642;SDS011;8435;52.184;5.406;2023-05-10T10:35:44;6.88;;;6.20;;
16642;SDS011;8435;52.184;5.406;2023-05-10T10:38:15;6.93;;;6.22;;
16642;SDS011;8435;52.184;5.406;2023-05-10T10:40:42;7.28;;;6.57;;
16642;SDS011;8435;52.184;5.406;2023-05-10T10:43:21;6.53;;;5.90;;
16642;SDS011;8435;52.184;5.406;2023-05-10T10:48:39;6.60;;;5.55;;
16642;SDS011;8435;52.184;5.406;2023-05-10T10:51:06;6.93;;;6.15;;
16642;SDS011;8435;52.184;5.406;2023-05-10T10:53:36;6.97;;;5.97;;
16642;SDS011;8435;52.184;5.406;2023-05-10T10:56:07;6.43;;;5.88;;
16642;SDS011;8435;52.184;5.406;2023-05-10T10:58:35;6.80;;;6.10;;
16642;SDS011;8435;52.184;5.406;2023-05-10T11:01:11;8.23;;;6.13;;
16642;SDS011;8435;52.184;5.406;2023-05-10T11:03:40;5.80;;;5.30;;
16642;SDS011;8435;52.184;5.406;2023-05-10T11:06:07;5.72;;;5.22;;
16642;SDS011;8435;52.184;5.406;2023-05-10T11:08:34;5.80;;;5.30;;
16642;SDS011;8435;52.184;5.406;2023-05-10T11:11:08;5.70;;;5.15;;
16642;SDS011;8435;52.184;5.406;2023-05-10T11:13:39;5.80;;;5.30;;
16642;SDS011;8435;52.184;5.406;2023-05-10T11:16:15;5.90;;;5.40;;
16642;SDS011;8435;52.184;5.406;2023-05-10T11:18:53;5.07;;;4.68;;
16642;SDS011;8435;52.184;5.406;2023-05-10T11:21:30;5.13;;;4.72;;
16642;SDS011;8435;52.184;5.406;2023-05-10T11:23:57;7.07;;;6.00;;
16642;SDS011;8435;52.184;5.406;2023-05-10T11:26:31;6.05;;;5.57;;
16642;SDS011;8435;52.184;5.406;2023-05-10T11:28:59;5.93;;;5.40;;
16642;SDS011;8435;52.184;5.406;2023-05-10T11:31:28;6.35;;;5.85;;
16642;SDS011;8435;52.184;5.406;2023-05-10T11:33:55;5.43;;;4.93;;
16642;SDS011;8435;52.184;5.406;2023-05-10T11:36:24;5.68;;;5.18;;
16642;SDS011;8435;52.184;5.406;2023-05-10T11:38:52;6.20;;;4.63;;
16642;SDS011;8435;52.184;5.406;2023-05-10T11:41:20;5.82;;;5.32;;
16642;SDS011;8435;52.184;5.406;2023-05-10T11:43:49;5.90;;;5.35;;
16642;SDS011;8435;52.184;5.406;2023-05-10T11:46:17;6.25;;;5.50;;
16642;SDS011;8435;52.184;5.406;2023-05-10T11:48:47;5.30;;;4.80;;
16642;SDS011;8435;52.184;5.406;2023-05-10T11:51:19;5.60;;;5.10;;
16642;SDS011;8435;52.184;5.406;2023-05-10T11:53:46;5.57;;;5.07;;
16642;SDS011;8435;52.184;5.406;2023-05-10T11:56:13;5.95;;;5.40;;
16642;SDS011;8435;52.184;5.406;2023-05-10T11:58:40;5.63;;;5.13;;
16642;SDS011;8435;52.184;5.406;2023-05-10T12:01:12;6.32;;;5.25;;
16642;SDS011;8435;52.184;5.406;2023-05-10T12:03:39;6.18;;;5.00;;
16642;SDS011;8435;52.184;5.406;2023-05-10T12:06:08;4.75;;;4.22;;
16642;SDS011;8435;52.184;5.406;2023-05-10T12:08:35;5.25;;;3.40;;
16642;SDS011;8435;52.184;5.406;2023-05-10T12:11:05;5.53;;;3.60;;
16642;SDS011;8435;52.184;5.406;2023-05-10T12:13:37;4.75;;;3.95;;
16642;SDS011;8435;52.184;5.406;2023-05-10T12:16:12;4.15;;;3.75;;
16642;SDS011;8435;52.184;5.406;2023-05-10T12:18:39;4.70;;;4.18;;
16642;SDS011;8435;52.184;5.406;2023-05-10T12:21:08;4.07;;;3.78;;
16642;SDS011;8435;52.184;5.406;2023-05-10T12:23:38;4.40;;;4.00;;
16642;SDS011;8435;52.184;5.406;2023-05-10T12:26:05;4.00;;;3.70;;
16642;SDS011;8435;52.184;5.406;2023-05-10T12:28:32;4.13;;;3.63;;
16642;SDS011;8435;52.184;5.406;2023-05-10T12:31:00;6.22;;;3.88;;
16642;SDS011;8435;52.184;5.406;2023-05-10T12:33:34;4.18;;;3.80;;
16642;SDS011;8435;52.184;5.406;2023-05-10T12:36:04;3.60;;;3.10;;
16642;SDS011;8435;52.184;5.406;2023-05-10T12:38:33;3.03;;;2.83;;
16642;SDS011;8435;52.184;5.406;2023-05-10T12:41:03;2.70;;;2.50;;
16642;SDS011;8435;52.184;5.406;2023-05-10T12:43:31;3.15;;;2.85;;
16642;SDS011;8435;52.184;5.406;2023-05-10T12:46:03;2.70;;;2.50;;
16642;SDS011;8435;52.184;5.406;2023-05-10T12:48:31;2.40;;;2.20;;
16642;SDS011;8435;52.184;5.406;2023-05-10T12:50:58;2.30;;;2.10;;
16642;SDS011;8435;52.184;5.406;2023-05-10T12:53:26;2.22;;;2.03;;
16642;SDS011;8435;52.184;5.406;2023-05-10T12:55:56;3.88;;;2.10;;
16642;SDS011;8435;52.184;5.406;2023-05-10T12:58:23;4.18;;;2.33;;
16642;SDS011;8435;52.184;5.406;2023-05-10T13:00:49;2.53;;;2.33;;
16642;SDS011;8435;52.184;5.406;2023-05-10T13:03:17;2.42;;;2.22;;
16642;SDS011;8435;52.184;5.406;2023-05-10T13:05:44;2.80;;;2.60;;
16642;SDS011;8435;52.184;5.406;2023-05-10T13:10:56;2.65;;;2.42;;
16642;SDS011;8435;52.184;5.406;2023-05-10T13:13:22;2.67;;;2.25;;
16642;SDS011;8435;52.184;5.406;2023-05-10T13:15:49;2.08;;;1.98;;
16642;SDS011;8435;52.184;5.406;2023-05-10T13:18:16;2.60;;;2.40;;
16642;SDS011;8435;52.184;5.406;2023-05-10T13:20:43;2.75;;;2.08;;
16642;SDS011;8435;52.184;5.406;2023-05-10T13:23:10;2.35;;;2.15;;
16642;SDS011;8435;52.184;5.406;2023-05-10T13:25:37;3.28;;;2.95;;
16642;SDS011;8435;52.184;5.406;2023-05-10T13:28:05;2.88;;;2.45;;
16642;SDS011;8435;52.184;5.406;2023-05-10T13:30:32;3.00;;;2.80;;
16642;SDS011;8435;52.184;5.406;2023-05-10T13:32:58;4.95;;;4.43;;
16642;SDS011;8435;52.184;5.406;2023-05-10T13:35:25;6.28;;;5.68;;
16642;SDS011;8435;52.184;5.406;2023-05-10T13:37:52;7.45;;;6.68;;
16642;SDS011;8435;52.184;5.406;2023-05-10T13:40:22;6.80;;;6.13;;
16642;SDS011;8435;52.184;5.406;2023-05-10T13:42:48;7.18;;;6.45;;
16642;SDS011;8435;52.184;5.406;2023-05-10T13:45:16;8.20;;;6.32;;
16642;SDS011;8435;52.184;5.406;2023-05-10T13:47:43;8.80;;;6.85;;
16642;SDS011;8435;52.184;5.406;2023-05-10T13:50:10;7.95;;;7.15;;
16642;SDS011;8435;52.184;5.406;2023-05-10T13:52:37;7.88;;;6.93;;
16642;SDS011;8435;52.184;5.406;2023-05-10T13:55:04;8.30;;;7.45;;
16642;SDS011;8435;52.184;5.406;2023-05-10T13:57:31;9.15;;;8.13;;
16642;SDS011;8435;52.184;5.406;2023-05-10T13:59:59;10.00;;;8.40;;
16642;SDS011;8435;52.184;5.406;2023-05-10T14:02:27;9.95;;;8.15;;
16642;SDS011;8435;52.184;5.406;2023-05-10T14:04:54;8.65;;;7.68;;
16642;SDS011;8435;52.184;5.406;2023-05-10T14:07:23;9.82;;;7.70;;
16642;SDS011;8435;52.184;5.406;2023-05-10T14:09:50;7.90;;;7.07;;
16642;SDS011;8435;52.184;5.406;2023-05-10T14:12:16;9.38;;;7.97;;
16642;SDS011;8435;52.184;5.406;2023-05-10T14:14:43;8.27;;;7.30;;
16642;SDS011;8435;52.184;5.406;2023-05-10T14:17:10;9.43;;;8.03;;
16642;SDS011;8435;52.184;5.406;2023-05-10T14:19:38;8.63;;;6.77;;
16642;SDS011;8435;52.184;5.406;2023-05-10T14:22:05;7.73;;;6.93;;
16642;SDS011;8435;52.184;5.406;2023-05-10T14:24:31;10.52;;;7.78;;
16642;SDS011;8435;52.184;5.406;2023-05-10T14:26:58;8.80;;;7.23;;
16642;SDS011;8435;52.184;5.406;2023-05-10T14:29:25;8.17;;;7.37;;
16642;SDS011;8435;52.184;5.406;2023-05-10T14:31:52;7.30;;;6.57;;
16642;SDS011;8435;52.184;5.406;2023-05-10T14:34:18;7.50;;;6.70;;
16642;SDS011;8435;52.184;5.406;2023-05-10T14:36:47;7.55;;;6.30;;
16642;SDS011;8435;52.184;5.406;2023-05-10T14:39:13;8.43;;;6.57;;
16642;SDS011;8435;52.184;5.406;2023-05-10T14:41:43;8.13;;;6.00;;
16642;SDS011;8435;52.184;5.406;2023-05-10T14:44:12;8.47;;;7.47;;
16642;SDS011;8435;52.184;5.406;2023-05-10T14:46:40;8.07;;;6.50;;
16642;SDS011;8435;52.184;5.406;2023-05-10T14:49:07;7.37;;;6.63;;
16642;SDS011;8435;52.184;5.406;2023-05-10T14:51:34;7.50;;;6.70;;
16642;SDS011;8435;52.184;5.406;2023-05-10T14:54:03;9.47;;;7.33;;
16642;SDS011;8435;52.184;5.406;2023-05-10T14:56:29;9.20;;;7.47;;
16642;SDS011;8435;52.184;5.406;2023-05-10T14:59:03;8.17;;;7.37;;
16642;SDS011;8435;52.184;5.406;2023-05-10T15:01:30;8.90;;;7.37;;